Time;durP1;ratioP1;P1;durP2;ratioP2;P2;SDS_P1;SDS_P2;PMS_P1;PMS_P2;Temp;Humidity;BMP_temperature;BMP_pressure;BME280_temperature;BME280_humidity;BME280_pressure;Samples;Min_cycle;Max_cycle;Signal;HPM_P1;HPM_P2
2022/03/25 00:02:19;;;;;;;7.45;3.92;;;;;;;5.14;64.14;100602.33;1749218;79;21051;-53
2022/03/25 00:04:46;;;;;;;9.25;4.78;;;;;;;5.16;64.09;100603.55;1745136;80;21302;-53
2022/03/25 00:07:14;;;;;;;8.70;4.67;;;;;;;5.11;64.10;100602.96;1741328;79;21067;-53
2022/03/25 00:09:42;;;;;;;10.78;4.60;;;;;;;5.05;64.30;100604.14;1762058;81;20984;-53
2022/03/25 00:12:10;;;;;;;8.95;5.10;;;;;;;4.99;64.41;100607.93;1743680;79;21094;-53
2022/03/25 00:14:38;;;;;;;10.80;4.58;;;;;;;4.94;64.56;100601.25;1746926;81;21608;-53
2022/03/25 00:17:05;;;;;;;8.63;4.67;;;;;;;4.96;64.66;100605.48;1750287;79;21220;-54
2022/03/25 00:19:32;;;;;;;8.05;4.30;;;;;;;5.05;64.59;100604.14;1748894;80;21083;-53
2022/03/25 00:21:59;;;;;;;9.75;4.55;;;;;;;5.15;64.46;100605.80;1756496;81;21068;-53
2022/03/25 00:24:27;;;;;;;8.38;4.30;;;;;;;5.21;64.43;100595.02;1752825;81;21079;-53
2022/03/25 00:26:55;;;;;;;8.65;4.62;;;;;;;5.27;64.40;100599.08;1749338;80;21557;-53
2022/03/25 00:29:22;;;;;;;8.50;4.83;;;;;;;5.32;64.26;100604.41;1753058;79;21257;-53
2022/03/25 00:31:51;;;;;;;9.63;4.78;;;;;;;5.30;64.13;100601.05;1750793;79;21574;-54
2022/03/25 00:34:18;;;;;;;9.53;4.55;;;;;;;5.27;64.14;100600.38;1751060;80;21114;-53
2022/03/25 00:36:47;;;;;;;8.40;4.35;;;;;;;5.19;64.21;100598.17;1757746;81;21016;-54
2022/03/25 00:39:14;;;;;;;8.43;4.75;;;;;;;5.10;64.46;100599.52;1755541;79;21074;-52
2022/03/25 00:41:44;;;;;;;9.80;4.92;;;;;;;5.02;64.70;100603.83;1748296;80;21517;-51
2022/03/25 00:44:12;;;;;;;9.48;5.30;;;;;;;4.98;64.95;100597.58;1755807;80;20976;-53
2022/03/25 00:46:41;;;;;;;7.50;4.10;;;;;;;4.96;64.99;100592.88;1751331;80;20996;-53
2022/03/25 00:49:08;;;;;;;9.45;4.47;;;;;;;4.97;65.06;100594.11;1748289;81;22364;-52
2022/03/25 00:51:37;;;;;;;7.65;4.10;;;;;;;5.01;64.99;100591.73;1750518;79;21145;-53
2022/03/25 00:54:04;;;;;;;8.23;4.37;;;;;;;5.05;65.01;100595.48;1750128;81;21611;-53
2022/03/25 00:56:32;;;;;;;8.95;4.47;;;;;;;5.03;64.94;100600.78;1751557;79;21009;-53
2022/03/25 00:58:59;;;;;;;7.72;4.60;;;;;;;4.98;64.98;100612.75;1747588;81;21083;-52
2022/03/25 01:01:27;;;;;;;9.15;5.30;;;;;;;4.92;65.08;100620.06;1756118;79;21694;-53
2022/03/25 01:03:54;;;;;;;6.83;3.62;;;;;;;4.84;65.24;100620.45;1753737;79;21095;-52
2022/03/25 01:06:21;;;;;;;9.03;4.22;;;;;;;4.77;65.49;100619.09;1749106;81;21249;-53
2022/03/25 01:08:49;;;;;;;9.33;5.15;;;;;;;4.68;65.69;100624.33;1755133;81;21028;-53
2022/03/25 01:11:16;;;;;;;7.75;4.10;;;;;;;4.60;65.81;100626.48;1751696;79;21552;-53
2022/03/25 01:13:44;;;;;;;7.17;3.90;;;;;;;4.53;66.03;100632.47;1753377;79;21043;-52
2022/03/25 01:16:12;;;;;;;8.60;4.67;;;;;;;4.52;66.21;100641.19;1749764;79;21551;-52
2022/03/25 01:18:40;;;;;;;7.33;3.72;;;;;;;4.58;66.26;100642.66;1747756;80;21035;-53
2022/03/25 01:21:08;;;;;;;8.15;4.75;;;;;;;4.66;66.34;100652.24;1750270;79;21086;-53
2022/03/25 01:23:36;;;;;;;11.38;5.47;;;;;;;4.73;66.40;100648.39;1754576;79;21070;-53
2022/03/25 01:26:04;;;;;;;10.70;5.55;;;;;;;4.78;66.34;100646.86;1759629;80;21048;-53
2022/03/25 01:28:34;;;;;;;8.40;4.97;;;;;;;4.83;66.33;100651.38;1741331;79;21039;-52
2022/03/25 01:31:03;;;;;;;9.25;5.67;;;;;;;4.86;66.13;100656.44;1754040;79;21166;-53
2022/03/25 01:33:33;;;;;;;9.68;5.42;;;;;;;4.87;66.03;100660.70;1750758;81;21087;-53
2022/03/25 01:36:01;;;;;;;9.28;5.50;;;;;;;4.87;65.92;100667.70;1753851;79;21501;-53
2022/03/25 01:38:29;;;;;;;12.13;5.28;;;;;;;4.83;65.91;100667.84;1752543;81;21156;-53
2022/03/25 01:40:58;;;;;;;9.58;5.50;;;;;;;4.78;65.94;100665.94;1748999;79;21099;-53
2022/03/25 01:43:27;;;;;;;10.50;5.58;;;;;;;4.75;66.00;100671.31;1750188;79;21947;-53
2022/03/25 01:45:54;;;;;;;11.50;5.97;;;;;;;4.76;65.96;100676.91;1751092;80;21049;-53
2022/03/25 01:48:22;;;;;;;10.58;5.90;;;;;;;4.80;65.74;100675.83;1751331;81;21078;-53
2022/03/25 01:50:49;;;;;;;13.28;5.70;;;;;;;4.81;65.55;100681.44;1743039;81;21018;-53
2022/03/25 01:53:20;;;;;;;9.65;5.15;;;;;;;4.79;65.47;100688.94;1742604;80;21051;-53
2022/03/25 01:55:56;;;;;;;9.80;5.75;;;;;;;4.77;65.58;100692.09;1726683;81;21324;-53
2022/03/25 01:58:27;;;;;;;9.05;5.10;;;;;;;4.73;65.45;100701.00;1740069;81;21071;-53
2022/03/25 02:00:56;;;;;;;10.72;5.78;;;;;;;4.67;65.37;100700.00;1748747;79;21114;-53
2022/03/25 02:03:23;;;;;;;10.63;6.28;;;;;;;4.63;65.71;100701.91;1754299;80;21067;-52
2022/03/25 02:05:50;;;;;;;10.08;6.08;;;;;;;4.60;65.86;100712.02;1754611;81;21536;-52
2022/03/25 02:08:18;;;;;;;9.95;6.33;;;;;;;4.53;65.77;100715.02;1750457;79;21912;-52
2022/03/25 02:10:47;;;;;;;10.40;6.08;;;;;;;4.44;65.89;100707.20;1753482;81;21068;-53
2022/03/25 02:13:16;;;;;;;10.08;5.62;;;;;;;4.36;66.14;100724.51;1757695;79;21074;-53
2022/03/25 02:15:49;;;;;;;12.00;6.08;;;;;;;4.33;66.36;100732.94;1750754;79;21103;-52
2022/03/25 02:18:20;;;;;;;11.43;5.20;;;;;;;4.30;66.51;100731.31;1749313;79;21106;-53
2022/03/25 02:20:48;;;;;;;9.08;4.67;;;;;;;4.32;66.70;100733.84;1740350;81;21147;-52
2022/03/25 02:23:16;;;;;;;10.65;5.33;;;;;;;4.32;66.95;100734.70;1747978;79;21497;-53
2022/03/25 02:25:45;;;;;;;11.30;5.47;;;;;;;4.35;67.11;100734.53;1742680;81;21031;-52
2022/03/25 02:28:12;;;;;;;13.08;6.75;;;;;;;4.36;67.11;100739.31;1734663;80;21549;-53
2022/03/25 02:30:41;;;;;;;13.38;7.45;;;;;;;4.33;67.05;100740.28;1755918;79;21039;-53
2022/03/25 02:33:10;;;;;;;10.82;7.33;;;;;;;4.33;67.06;100740.75;1754340;79;21148;-53
2022/03/25 02:35:48;;;;;;;14.65;9.08;;;;;;;4.23;66.98;100751.59;1751402;80;21017;-53
2022/03/25 02:38:18;;;;;;;19.60;10.48;;;;;;;4.14;67.13;100753.35;1756978;80;21101;-52
2022/03/25 02:40:46;;;;;;;18.40;11.15;;;;;;;4.05;67.49;100758.98;1740865;79;21570;-53
2022/03/25 02:43:13;;;;;;;14.40;9.08;;;;;;;4.03;67.70;100760.34;1748599;81;21084;-53
2022/03/25 02:45:46;;;;;;;16.23;10.32;;;;;;;4.11;67.80;100770.42;1744492;81;21621;-53
2022/03/25 02:48:14;;;;;;;18.42;11.50;;;;;;;4.15;67.88;100765.91;1731035;81;21080;-53
2022/03/25 02:50:42;;;;;;;21.87;12.00;;;;;;;4.16;68.06;100765.84;1735303;81;21049;-53
2022/03/25 02:53:09;;;;;;;19.42;10.98;;;;;;;4.13;68.24;100773.79;1739684;81;21092;-52
2022/03/25 02:55:36;;;;;;;17.67;10.88;;;;;;;4.10;68.38;100776.53;1743510;81;21555;-53
2022/03/25 02:58:03;;;;;;;18.77;12.03;;;;;;;4.06;68.55;100781.52;1729095;81;21153;-53
2022/03/25 03:00:31;;;;;;;19.75;12.20;;;;;;;4.00;68.73;100789.16;1722214;81;21533;-53
2022/03/25 03:03:03;;;;;;;19.48;11.15;;;;;;;3.98;68.93;100797.48;1733553;81;21120;-53
2022/03/25 03:05:33;;;;;;;19.45;11.18;;;;;;;3.96;69.08;100798.02;1728021;81;21108;-53
2022/03/25 03:08:00;;;;;;;16.55;10.43;;;;;;;4.04;68.95;100798.97;1730472;80;21017;-53
2022/03/25 03:10:27;;;;;;;17.27;10.30;;;;;;;4.10;68.94;100797.37;1728036;81;21199;-53
2022/03/25 03:12:56;;;;;;;16.25;10.78;;;;;;;4.14;68.93;100802.84;1730734;81;21116;-53
2022/03/25 03:15:24;;;;;;;21.95;12.82;;;;;;;4.17;69.07;100806.61;1725013;81;21044;-53
2022/03/25 03:17:53;;;;;;;20.37;12.88;;;;;;;4.23;69.15;100805.47;1724895;81;21056;-53
2022/03/25 03:20:21;;;;;;;19.05;11.65;;;;;;;4.28;69.03;100803.48;1730083;82;21045;-53
2022/03/25 03:22:49;;;;;;;21.37;12.70;;;;;;;4.31;68.89;100805.12;1741891;80;21081;-53
2022/03/25 03:25:16;;;;;;;22.00;13.03;;;;;;;4.30;68.79;100817.75;1726361;81;21052;-53
2022/03/25 03:27:44;;;;;;;20.45;12.47;;;;;;;4.23;68.79;100819.33;1719643;82;21191;-53
2022/03/25 03:30:11;;;;;;;18.37;12.15;;;;;;;4.21;68.89;100821.63;1716841;82;21097;-53
2022/03/25 03:32:40;;;;;;;22.52;12.90;;;;;;;4.23;68.95;100828.91;1716691;82;21072;-53
2022/03/25 03:35:08;;;;;;;21.27;12.90;;;;;;;4.27;69.02;100831.77;1725178;81;21186;-53
2022/03/25 03:37:42;;;;;;;19.12;13.22;;;;;;;4.31;69.12;100832.00;1728571;81;21071;-52
2022/03/25 03:40:10;;;;;;;21.87;13.08;;;;;;;4.31;69.22;100824.66;1739128;81;21060;-54
2022/03/25 03:42:38;;;;;;;20.70;14.38;;;;;;;4.34;69.23;100833.61;1735187;81;21089;-54
2022/03/25 03:45:08;;;;;;;20.48;12.95;;;;;;;4.36;69.15;100838.31;1732544;81;21490;-54
2022/03/25 03:47:36;;;;;;;22.90;15.05;;;;;;;4.37;69.00;100841.28;1742018;81;21206;-54
2022/03/25 03:50:04;;;;;;;27.80;14.83;;;;;;;4.37;68.87;100847.80;1732022;81;21432;-54
2022/03/25 03:52:32;;;;;;;24.32;15.60;;;;;;;4.36;68.70;100849.57;1740185;81;21018;-54
2022/03/25 03:55:00;;;;;;;27.62;15.75;;;;;;;4.37;68.43;100851.70;1731160;81;21033;-54
2022/03/25 03:57:29;;;;;;;24.70;14.03;;;;;;;4.46;68.16;100853.42;1731912;81;21046;-54
2022/03/25 03:59:56;;;;;;;22.85;14.53;;;;;;;4.53;67.89;100847.47;1743493;81;21239;-51
2022/03/25 04:02:23;;;;;;;26.42;16.87;;;;;;;4.61;67.60;100860.16;1733452;81;21056;-51
2022/03/25 04:04:51;;;;;;;21.17;15.23;;;;;;;4.64;67.11;100863.45;1720308;81;21092;-51
2022/03/25 04:07:19;;;;;;;22.58;14.55;;;;;;;4.64;66.93;100863.92;1722291;81;21103;-54
2022/03/25 04:09:47;;;;;;;23.07;15.68;;;;;;;4.63;66.63;100860.45;1730437;81;21538;-54
2022/03/25 04:12:15;;;;;;;20.48;14.70;;;;;;;4.61;66.42;100875.33;1731931;81;21269;-54
2022/03/25 04:14:44;;;;;;;21.27;14.93;;;;;;;4.60;66.33;100874.09;1733973;81;21092;-52
2022/03/25 04:17:12;;;;;;;22.95;14.58;;;;;;;4.59;65.99;100877.60;1747632;81;21756;-52
2022/03/25 04:19:39;;;;;;;21.45;14.45;;;;;;;4.55;65.96;100879.52;1733147;81;21091;-52
2022/03/25 04:22:07;;;;;;;28.85;14.20;;;;;;;4.54;65.77;100893.48;1745820;81;21066;-52
2022/03/25 04:24:34;;;;;;;19.23;12.58;;;;;;;4.55;65.44;100893.84;1736060;81;21161;-52
2022/03/25 04:27:01;;;;;;;20.23;13.38;;;;;;;4.59;65.17;100901.92;1730904;81;21387;-52
2022/03/25 04:29:28;;;;;;;18.70;12.55;;;;;;;4.65;64.90;100908.60;1723137;81;21001;-53
2022/03/25 04:31:55;;;;;;;24.72;14.73;;;;;;;4.70;64.69;100907.09;1727077;81;21025;-52
2022/03/25 04:34:23;;;;;;;21.90;14.05;;;;;;;4.73;64.30;100917.38;1722413;82;21065;-53
2022/03/25 04:36:50;;;;;;;22.17;13.58;;;;;;;4.73;64.15;100913.47;1718676;81;21148;-52
2022/03/25 04:39:18;;;;;;;20.70;13.68;;;;;;;4.74;64.03;100920.35;1722984;82;21708;-53
2022/03/25 04:41:45;;;;;;;21.75;13.53;;;;;;;4.73;63.70;100917.38;1718951;82;21064;-53
2022/03/25 04:44:12;;;;;;;19.17;12.73;;;;;;;4.74;63.42;100916.44;1718785;82;21108;-52
2022/03/25 04:46:40;;;;;;;22.62;13.08;;;;;;;4.73;62.93;100922.13;1739258;81;21042;-53
2022/03/25 04:49:08;;;;;;;17.50;12.65;;;;;;;4.71;62.60;100925.27;1759743;79;21612;-52
2022/03/25 04:51:36;;;;;;;24.98;12.60;;;;;;;4.70;62.46;100923.56;1760198;81;21004;-53
2022/03/25 04:54:03;;;;;;;19.52;11.85;;;;;;;4.73;62.36;100929.95;1758372;80;21054;-53
2022/03/25 04:56:33;;;;;;;19.32;12.55;;;;;;;4.74;62.06;100930.78;1760632;81;21074;-53
2022/03/25 04:59:01;;;;;;;18.17;12.10;;;;;;;4.74;61.96;100938.17;1758392;81;21063;-52
2022/03/25 05:01:29;;;;;;;17.35;10.95;;;;;;;4.75;61.58;100933.79;1755248;81;21789;-52
2022/03/25 05:03:56;;;;;;;20.55;11.43;;;;;;;4.72;61.46;100940.45;1758901;79;21096;-52
2022/03/25 05:06:24;;;;;;;18.95;11.90;;;;;;;4.72;61.08;100945.66;1755013;81;21079;-52
2022/03/25 05:08:53;;;;;;;18.15;10.10;;;;;;;4.69;60.67;100957.53;1756742;79;21179;-52
2022/03/25 05:11:21;;;;;;;15.65;10.90;;;;;;;4.68;60.67;100962.37;1765193;81;21037;-53
2022/03/25 05:13:48;;;;;;;16.00;10.00;;;;;;;4.75;60.58;100962.47;1757295;79;21574;-53
2022/03/25 05:16:15;;;;;;;16.15;10.58;;;;;;;4.82;60.55;100965.16;1763467;81;21078;-52
2022/03/25 05:18:42;;;;;;;14.28;9.58;;;;;;;4.91;60.51;100972.58;1760723;79;20993;-53
2022/03/25 05:21:11;;;;;;;15.30;9.30;;;;;;;5.00;59.72;100976.51;1752598;81;21111;-52
2022/03/25 05:23:40;;;;;;;15.15;9.93;;;;;;;5.05;58.97;100982.34;1759581;81;21061;-53
2022/03/25 05:26:07;;;;;;;13.05;8.80;;;;;;;5.07;58.61;100983.11;1759210;79;21259;-52
2022/03/25 05:28:34;;;;;;;15.58;8.53;;;;;;;5.05;57.72;100989.34;1757950;80;21817;-53
2022/03/25 05:31:02;;;;;;;14.10;9.15;;;;;;;5.00;57.78;100997.38;1754649;81;21094;-53
2022/03/25 05:33:29;;;;;;;13.85;9.15;;;;;;;4.95;57.57;100996.74;1761719;79;21005;-52
2022/03/25 05:35:57;;;;;;;13.85;9.13;;;;;;;4.92;57.86;101006.01;1759737;81;21047;-53
2022/03/25 05:38:24;;;;;;;13.85;9.10;;;;;;;4.87;58.07;101011.89;1754098;79;21887;-53
2022/03/25 05:40:51;;;;;;;11.70;9.30;;;;;;;4.87;58.17;101013.20;1750049;79;20984;-53
2022/03/25 05:43:20;;;;;;;17.40;9.00;;;;;;;4.83;58.08;101019.86;1757403;79;21102;-53
2022/03/25 05:45:48;;;;;;;15.60;9.55;;;;;;;4.81;57.97;101025.61;1759786;80;21022;-52
2022/03/25 05:48:17;;;;;;;15.08;8.33;;;;;;;4.77;57.95;101030.55;1748512;79;21098;-52
2022/03/25 05:50:44;;;;;;;14.85;8.75;;;;;;;4.76;57.88;101036.70;1752136;80;21552;-52
2022/03/25 05:53:12;;;;;;;15.28;7.95;;;;;;;4.77;57.96;101041.45;1753114;79;22220;-52
2022/03/25 05:55:39;;;;;;;14.63;8.63;;;;;;;4.76;57.59;101043.22;1758827;80;21011;-52
2022/03/25 05:58:07;;;;;;;13.50;9.18;;;;;;;4.74;57.32;101048.10;1746637;81;22273;-52
2022/03/25 06:00:34;;;;;;;15.60;9.78;;;;;;;4.73;57.33;101048.57;1750766;81;21038;-51
2022/03/25 06:03:01;;;;;;;17.05;10.72;;;;;;;4.70;57.45;101052.61;1764485;81;21258;-52
2022/03/25 06:05:29;;;;;;;17.05;10.35;;;;;;;4.68;57.58;101056.22;1764790;80;21106;-52
2022/03/25 06:07:57;;;;;;;18.48;12.45;;;;;;;4.67;57.51;101063.64;1761524;79;21082;-52
2022/03/25 06:10:25;;;;;;;21.33;11.93;;;;;;;4.65;57.73;101065.01;1761183;80;21555;-52
2022/03/25 06:12:54;;;;;;;19.45;11.35;;;;;;;4.67;57.86;101069.69;1753240;81;21031;-52
2022/03/25 06:15:21;;;;;;;19.65;12.13;;;;;;;4.72;57.86;101070.80;1754166;81;22228;-52
2022/03/25 06:17:50;;;;;;;19.07;11.48;;;;;;;4.78;57.72;101078.36;1760592;81;21039;-52
2022/03/25 06:20:20;;;;;;;17.62;11.65;;;;;;;4.81;57.43;101079.06;1751615;80;21055;-53
2022/03/25 06:22:49;;;;;;;18.67;11.45;;;;;;;4.83;57.56;101075.92;1758708;79;21052;-53
2022/03/25 06:25:18;;;;;;;18.62;9.88;;;;;;;4.86;57.65;101083.20;1762522;81;21122;-53
2022/03/25 06:27:57;;;;;;;17.10;9.83;;;;;;;4.88;57.74;101090.06;1756830;79;21083;-52
2022/03/25 06:30:34;;;;;;;13.22;8.08;;;;;;;4.91;57.59;101087.32;1759889;79;21040;-54
2022/03/25 06:33:05;;;;;;;14.93;8.63;;;;;;;4.95;57.47;101087.56;1770691;81;21094;-54
2022/03/25 06:35:32;;;;;;;18.15;9.18;;;;;;;4.98;57.63;101087.89;1764225;81;21027;-51
2022/03/25 06:37:59;;;;;;;10.38;6.25;;;;;;;5.07;57.72;101099.66;1769742;81;21450;-54
2022/03/25 06:40:26;;;;;;;12.53;7.83;;;;;;;5.19;57.58;101089.52;1756735;80;23140;-54
2022/03/25 06:42:56;;;;;;;11.65;6.58;;;;;;;5.33;56.85;101097.14;1762120;79;21409;-54
2022/03/25 06:45:24;;;;;;;11.70;7.50;;;;;;;5.40;56.97;101102.48;1749894;80;21156;-54
2022/03/25 06:47:52;;;;;;;13.08;7.03;;;;;;;5.47;56.97;101104.34;1747344;79;21062;-54
2022/03/25 06:50:21;;;;;;;12.07;6.47;;;;;;;5.54;56.73;101107.87;1747676;79;21851;-54
2022/03/25 06:52:49;;;;;;;13.55;7.00;;;;;;;5.61;56.50;101110.20;1763966;80;21265;-54
2022/03/25 06:55:17;;;;;;;10.38;6.67;;;;;;;5.68;56.42;101116.38;1751632;79;21060;-54
2022/03/25 06:57:45;;;;;;;10.80;6.58;;;;;;;5.70;55.59;101117.15;1752907;80;21250;-54
2022/03/25 07:00:13;;;;;;;11.08;6.87;;;;;;;5.72;55.27;101123.61;1746925;79;21074;-55
2022/03/25 07:02:43;;;;;;;13.10;6.95;;;;;;;5.72;55.72;101124.44;1754382;81;21031;-51
2022/03/25 07:05:11;;;;;;;11.68;6.35;;;;;;;5.74;55.72;101126.52;1765031;79;21139;-51
2022/03/25 07:07:40;;;;;;;11.48;7.08;;;;;;;5.73;55.69;101128.77;1754267;80;21031;-54
2022/03/25 07:10:12;;;;;;;10.53;6.15;;;;;;;5.75;55.76;101128.22;1763872;79;21049;-54
2022/03/25 07:12:42;;;;;;;10.28;6.00;;;;;;;5.80;55.73;101135.84;1759324;81;21027;-53
2022/03/25 07:15:10;;;;;;;9.40;5.70;;;;;;;5.85;55.33;101134.29;1761506;79;21079;-52
2022/03/25 07:17:38;;;;;;;11.78;6.12;;;;;;;5.89;54.73;101134.08;1758121;79;21153;-52
2022/03/25 07:20:07;;;;;;;15.13;7.15;;;;;;;5.91;54.86;101132.23;1763474;81;21059;-52
2022/03/25 07:22:36;;;;;;;10.38;5.95;;;;;;;5.95;54.73;101130.31;1762866;81;21035;-52
2022/03/25 07:25:05;;;;;;;10.18;5.70;;;;;;;5.99;54.37;101128.45;1755777;80;21067;-53
2022/03/25 07:27:32;;;;;;;12.20;5.65;;;;;;;6.04;53.79;101128.59;1758132;81;21088;-52
2022/03/25 07:30:00;;;;;;;9.28;5.67;;;;;;;6.09;53.54;101129.22;1759114;80;21883;-53
2022/03/25 07:32:27;;;;;;;10.95;5.78;;;;;;;6.14;53.24;101131.61;1766034;80;20988;-53
2022/03/25 07:34:54;;;;;;;10.78;5.47;;;;;;;6.21;52.87;101132.16;1755086;81;21075;-52
2022/03/25 07:37:22;;;;;;;11.30;5.83;;;;;;;6.29;52.57;101139.16;1749569;81;21086;-52
2022/03/25 07:39:49;;;;;;;12.55;5.75;;;;;;;6.37;52.61;101133.52;1764054;80;21011;-52
2022/03/25 07:42:16;;;;;;;9.68;5.10;;;;;;;6.47;52.56;101131.69;1764506;81;21453;-52
2022/03/25 07:44:43;;;;;;;8.70;5.10;;;;;;;6.60;52.07;101135.81;1763850;80;21102;-52
2022/03/25 07:47:12;;;;;;;8.38;4.80;;;;;;;6.67;49.37;101136.34;1757093;80;21130;-52
2022/03/25 07:49:40;;;;;;;9.50;4.87;;;;;;;6.77;49.27;101140.16;1754304;79;21557;-52
2022/03/25 07:52:08;;;;;;;7.83;4.50;;;;;;;6.84;49.46;101138.95;1760685;80;21039;-52
2022/03/25 07:54:36;;;;;;;7.60;4.45;;;;;;;6.94;48.84;101139.75;1760274;79;21078;-52
2022/03/25 07:57:04;;;;;;;8.65;5.08;;;;;;;7.02;48.25;101137.58;1759405;81;21572;-53
2022/03/25 07:59:31;;;;;;;7.58;4.08;;;;;;;7.13;48.02;101147.02;1751892;80;21569;-52
2022/03/25 08:01:58;;;;;;;7.53;4.10;;;;;;;7.23;47.49;101145.60;1757873;80;22243;-52
2022/03/25 08:04:25;;;;;;;5.67;3.58;;;;;;;7.33;46.76;101145.09;1756937;81;21078;-53
2022/03/25 08:06:53;;;;;;;10.43;5.10;;;;;;;7.40;46.61;101151.23;1756807;81;21232;-53
2022/03/25 08:09:21;;;;;;;7.35;4.45;;;;;;;7.47;46.53;101145.19;1760331;79;21063;-53
2022/03/25 08:11:48;;;;;;;7.12;4.80;;;;;;;7.57;46.44;101146.84;1761892;80;21545;-52
2022/03/25 08:14:16;;;;;;;8.33;4.60;;;;;;;7.67;45.32;101149.81;1762265;79;21033;-53
2022/03/25 08:16:45;;;;;;;8.78;4.78;;;;;;;7.68;44.72;101154.09;1761713;79;21094;-53
2022/03/25 08:19:15;;;;;;;7.17;3.98;;;;;;;7.71;45.05;101153.94;1761789;81;21035;-52
2022/03/25 08:21:42;;;;;;;7.08;4.10;;;;;;;7.78;45.44;101153.96;1760801;81;21035;-52
2022/03/25 08:29:41;;;;;;;;;;;;;;;8.03;44.64;101155.20;1761387;80;21580;-52
2022/03/25 08:32:09;;;;;;;8.93;4.65;;;;;;;8.04;44.31;101152.97;1756511;79;22051;-52
2022/03/25 08:34:36;;;;;;;10.13;5.10;;;;;;;7.96;44.53;101158.16;1762953;80;20988;-52
2022/03/25 08:37:04;;;;;;;10.48;6.37;;;;;;;7.97;44.53;101157.25;1755721;80;21540;-53
2022/03/25 08:39:31;;;;;;;10.93;5.83;;;;;;;7.99;43.90;101158.00;1760737;81;21086;-53
2022/03/25 08:41:59;;;;;;;9.55;5.40;;;;;;;8.05;44.49;101159.89;1757781;80;21431;-53
2022/03/25 08:44:26;;;;;;;10.45;5.58;;;;;;;8.16;44.75;101164.06;1759026;81;21158;-53
2022/03/25 08:46:54;;;;;;;9.00;5.37;;;;;;;8.24;44.59;101159.22;1757052;80;21053;-53
2022/03/25 08:49:22;;;;;;;10.10;6.03;;;;;;;8.31;43.94;101159.23;1748317;81;21050;-53
2022/03/25 08:51:50;;;;;;;10.90;6.20;;;;;;;8.36;43.13;101162.43;1747208;80;21000;-52
2022/03/25 08:54:18;;;;;;;7.92;4.25;;;;;;;8.36;42.42;101163.74;1753658;80;21050;-53
2022/03/25 08:56:47;;;;;;;8.98;5.08;;;;;;;8.35;42.36;101157.27;1755487;81;22237;-53
2022/03/25 08:59:14;;;;;;;7.22;4.10;;;;;;;8.35;42.59;101162.08;1746882;81;21047;-53
2022/03/25 09:01:42;;;;;;;7.95;4.67;;;;;;;8.40;42.79;101163.57;1752633;81;21411;-52
2022/03/25 09:04:09;;;;;;;8.33;4.60;;;;;;;8.48;42.01;101160.90;1748399;80;21553;-53
2022/03/25 09:06:37;;;;;;;8.10;4.80;;;;;;;8.52;41.55;101158.94;1745464;80;21039;-53
2022/03/25 09:09:06;;;;;;;7.10;4.20;;;;;;;8.52;41.18;101157.62;1752486;81;21016;-51
2022/03/25 09:11:34;;;;;;;8.00;4.33;;;;;;;8.50;41.05;101154.25;1750425;80;21040;-52
2022/03/25 09:14:02;;;;;;;7.53;4.33;;;;;;;8.53;40.73;101155.39;1745706;81;21095;-52
2022/03/25 09:16:30;;;;;;;9.35;4.17;;;;;;;8.53;39.95;101151.45;1746555;81;21023;-52
2022/03/25 09:18:58;;;;;;;6.28;3.80;;;;;;;8.57;40.56;101162.61;1758910;80;21047;-52
2022/03/25 09:21:25;;;;;;;7.92;4.37;;;;;;;8.61;40.79;101162.78;1751608;81;21190;-51
2022/03/25 09:23:52;;;;;;;7.62;4.45;;;;;;;8.66;41.02;101173.41;1744956;80;21064;-52
2022/03/25 09:26:20;;;;;;;9.60;4.40;;;;;;;8.73;41.02;101167.33;1741730;81;21302;-52
2022/03/25 09:28:47;;;;;;;7.45;4.22;;;;;;;8.80;40.95;101165.18;1750438;81;21055;-53
2022/03/25 09:31:16;;;;;;;9.95;4.70;;;;;;;8.85;40.63;101165.75;1749346;80;21035;-53
2022/03/25 09:33:43;;;;;;;7.22;3.95;;;;;;;8.86;40.15;101170.04;1724455;81;21203;-53
2022/03/25 09:36:10;;;;;;;7.80;4.15;;;;;;;8.88;40.74;101169.50;1755310;80;21028;-53
2022/03/25 09:38:37;;;;;;;8.33;3.95;;;;;;;8.90;40.91;101169.77;1752600;81;21031;-52
2022/03/25 09:41:07;;;;;;;7.40;4.00;;;;;;;8.94;40.35;101170.42;1749810;81;21532;-52
2022/03/25 09:43:34;;;;;;;8.03;4.75;;;;;;;9.00;40.83;101168.75;1747201;81;21081;-53
2022/03/25 09:46:01;;;;;;;8.00;4.42;;;;;;;9.07;40.59;101174.47;1750927;81;21146;-52
2022/03/25 09:48:29;;;;;;;10.05;4.83;;;;;;;9.15;40.45;101167.45;1748391;79;21809;-54
2022/03/25 09:50:56;;;;;;;7.97;4.33;;;;;;;9.24;40.11;101173.43;1737313;79;21067;-52
2022/03/25 09:53:30;;;;;;;9.30;5.00;;;;;;;9.30;39.81;101173.06;1713841;82;21821;-53
2022/03/25 09:55:58;;;;;;;6.78;3.80;;;;;;;9.35;39.80;101178.04;1740177;79;21122;-53
2022/03/25 09:58:28;;;;;;;9.15;5.17;;;;;;;9.36;40.50;101172.66;1749691;80;21243;-52
2022/03/25 10:00:54;;;;;;;8.88;4.85;;;;;;;9.49;40.15;101178.00;1755763;81;22252;-53
2022/03/25 10:03:36;;;;;;;8.73;4.37;;;;;;;9.53;38.71;101174.70;1756201;79;21153;-53
2022/03/25 10:06:12;;;;;;;8.83;4.40;;;;;;;9.55;39.34;101177.62;1730060;80;21090;-52
2022/03/25 10:08:39;;;;;;;7.20;4.40;;;;;;;9.54;38.94;101176.41;1748114;81;22142;-52
2022/03/25 10:11:22;;;;;;;7.08;3.98;;;;;;;9.59;38.37;101177.80;1754730;79;21661;-52
2022/03/25 10:14:10;;;;;;;8.60;4.65;;;;;;;9.66;38.88;101176.94;1755888;81;21027;-52
2022/03/25 10:16:37;;;;;;;9.03;4.85;;;;;;;9.72;39.18;101178.34;1745077;79;21637;-52
2022/03/25 10:19:04;;;;;;;10.10;5.78;;;;;;;9.82;39.62;101177.65;1760061;81;21083;-52
2022/03/25 10:21:57;;;;;;;9.33;4.97;;;;;;;9.89;39.14;101181.20;1752011;79;21018;-51
2022/03/25 10:24:47;;;;;;;8.63;4.70;;;;;;;9.96;39.87;101177.23;1735961;81;21302;-53
2022/03/25 10:27:19;;;;;;;9.83;4.92;;;;;;;10.13;39.52;101176.96;1745632;81;21039;-54
2022/03/25 10:29:48;;;;;;;10.03;4.78;;;;;;;10.23;38.98;101181.16;1736532;80;21066;-53
2022/03/25 10:32:18;;;;;;;9.75;5.22;;;;;;;10.30;38.99;101169.27;1747456;81;21149;-53
2022/03/25 10:35:10;;;;;;;8.80;5.65;;;;;;;10.39;38.93;101175.28;1742211;81;21106;-53
2022/03/25 10:37:41;;;;;;;8.83;4.78;;;;;;;10.47;38.12;101167.34;1702343;82;21218;-53
2022/03/25 10:40:10;;;;;;;7.75;5.20;;;;;;;10.51;38.34;101174.94;1753729;81;21498;-54
2022/03/25 10:42:40;;;;;;;11.65;5.37;;;;;;;10.57;38.61;101174.53;1752569;79;21032;-52
2022/03/25 10:45:26;;;;;;;8.33;5.28;;;;;;;10.57;38.68;101173.22;1736870;81;21080;-52
2022/03/25 10:48:14;;;;;;;8.63;4.80;;;;;;;10.55;39.07;101171.14;1749050;79;21073;-52
2022/03/25 10:51:03;;;;;;;8.25;5.25;;;;;;;10.58;38.85;101177.52;1717734;81;22627;-53
2022/03/25 10:53:35;;;;;;;8.98;5.17;;;;;;;10.57;38.42;101171.91;1730499;81;21022;-53
2022/03/25 10:56:10;;;;;;;8.75;3.98;;;;;;;10.58;37.91;101179.31;1737725;81;21093;-52
2022/03/25 10:58:37;;;;;;;8.40;5.00;;;;;;;10.65;38.39;101179.74;1719613;81;21065;-53
2022/03/25 11:03:36;;;;;;;8.98;4.53;;;;;;;10.87;37.88;101172.05;1795257;79;22748;-53
2022/03/25 11:06:04;;;;;;;8.80;5.20;;;;;;;10.88;37.69;101167.17;1749396;80;21596;-53
2022/03/25 11:08:31;;;;;;;7.95;4.87;;;;;;;10.84;37.36;101165.67;1754459;80;21259;-51
2022/03/25 11:10:59;;;;;;;8.40;5.03;;;;;;;10.87;37.88;101170.73;1761851;80;21133;-52
2022/03/25 11:13:26;;;;;;;7.62;4.80;;;;;;;10.92;37.43;101171.27;1719007;81;21058;-52
2022/03/25 11:15:55;;;;;;;6.85;4.55;;;;;;;10.95;37.72;101164.95;1721168;82;21567;-53
2022/03/25 11:18:22;;;;;;;8.38;4.92;;;;;;;10.98;37.74;101164.75;1718877;81;21088;-54
2022/03/25 11:20:52;;;;;;;10.50;5.42;;;;;;;11.00;37.24;101170.75;1706118;83;21794;-54
2022/03/25 11:23:25;;;;;;;10.80;4.30;;;;;;;11.05;38.06;101168.63;1726791;81;21050;-54
2022/03/25 11:25:55;;;;;;;8.03;4.83;;;;;;;11.21;38.01;101162.28;1704441;82;21078;-54
2022/03/25 11:28:30;;;;;;;7.20;5.15;;;;;;;11.41;38.02;101156.93;1714751;82;21109;-54
2022/03/25 11:31:05;;;;;;;8.23;4.70;;;;;;;11.58;37.05;101166.27;1723378;81;21011;-54
2022/03/25 11:33:32;;;;;;;10.48;5.60;;;;;;;11.65;36.69;101156.50;1718054;81;21228;-54
2022/03/25 11:36:14;;;;;;;11.70;5.65;;;;;;;11.75;36.33;101157.12;1720405;82;21491;-53
2022/03/25 11:38:43;;;;;;;11.12;5.90;;;;;;;11.83;36.30;101152.14;1726646;81;21081;-52
2022/03/25 11:41:26;;;;;;;11.05;7.45;;;;;;;11.90;35.51;101149.41;1726809;82;21065;-53
2022/03/25 11:44:18;;;;;;;12.07;6.22;;;;;;;11.92;35.48;101152.84;1721637;82;21114;-53